createdAt,value
2022-09-12T00:01:28.672Z,10.18
2022-09-12T00:04:00.677Z,11.47
2022-09-12T00:06:30.927Z,11.18
2022-09-12T00:09:02.967Z,8.60
2022-09-12T00:11:31.551Z,11.70
2022-09-12T00:14:02.110Z,11.40
2022-09-12T00:16:34.490Z,13.25
2022-09-12T00:19:03.906Z,11.77
2022-09-12T00:21:34.358Z,11.07
2022-09-12T00:24:03.130Z,13.10
2022-09-12T00:26:31.823Z,11.07
2022-09-12T00:29:00.342Z,11.60
2022-09-12T00:31:29.038Z,14.80
2022-09-12T00:34:01.839Z,11.73
2022-09-12T00:36:31.276Z,14.30
2022-09-12T00:38:59.895Z,12.80
2022-09-12T00:41:31.370Z,12.68
2022-09-12T00:44:02.513Z,14.70
2022-09-12T00:46:37.291Z,13.97
2022-09-12T00:49:13.316Z,12.98
2022-09-12T00:51:44.741Z,12.13
2022-09-12T00:54:18.279Z,13.52
2022-09-12T00:56:48.218Z,12.20
2022-09-12T00:59:20.174Z,13.87
2022-09-12T01:01:51.506Z,13.98
2022-09-12T01:04:23.855Z,11.97
2022-09-12T01:06:53.293Z,13.32
2022-09-12T01:09:23.952Z,13.65
2022-09-12T01:11:55.439Z,13.55
2022-09-12T01:14:24.018Z,11.88
2022-09-12T01:16:52.806Z,13.07
2022-09-12T01:19:49.429Z,16.37
2022-09-12T01:22:35.120Z,13.82
2022-09-12T01:25:12.609Z,13.50
2022-09-12T01:27:51.919Z,13.17
2022-09-12T01:30:25.048Z,15.27
2022-09-12T01:33:06.939Z,11.23
2022-09-12T01:35:45.518Z,14.63
2022-09-12T01:38:29.149Z,13.80
2022-09-12T01:41:04.412Z,13.50
2022-09-12T01:43:38.077Z,13.70
2022-09-12T01:46:14.336Z,16.87
2022-09-12T01:48:49.079Z,14.50
2022-09-12T01:51:23.003Z,14.23
2022-09-12T01:53:55.710Z,13.68
2022-09-12T01:56:26.979Z,14.67
2022-09-12T01:59:00.165Z,13.40
2022-09-12T02:01:33.957Z,15.32
2022-09-12T02:04:09.075Z,15.27
2022-09-12T02:06:45.022Z,15.10
2022-09-12T02:09:20.357Z,15.47
2022-09-12T02:11:52.669Z,15.23
2022-09-12T02:14:24.237Z,16.43
2022-09-12T02:16:58.863Z,15.10
2022-09-12T02:19:32.185Z,17.03
2022-09-12T02:22:03.167Z,16.13
2022-09-12T02:24:35.007Z,15.70
2022-09-12T02:27:09.406Z,16.30
2022-09-12T02:29:38.132Z,18.03
2022-09-12T02:32:16.029Z,16.90
2022-09-12T02:34:52.499Z,15.60
2022-09-12T02:37:27.549Z,17.17
2022-09-12T02:39:57.199Z,18.40
2022-09-12T02:42:26.455Z,18.03
2022-09-12T02:44:57.337Z,19.30
2022-09-12T02:47:32.275Z,18.73
2022-09-12T02:50:00.879Z,17.92
2022-09-12T02:52:30.581Z,19.17
2022-09-12T02:55:00.685Z,17.93
2022-09-12T02:57:29.023Z,19.07
2022-09-12T03:00:02.320Z,18.53
2022-09-12T03:02:53.086Z,17.03
2022-09-12T03:05:26.329Z,19.42
2022-09-12T03:08:22.552Z,17.77
2022-09-12T03:11:08.396Z,18.57
2022-09-12T03:13:46.276Z,16.97
2022-09-12T03:16:19.467Z,20.80
2022-09-12T03:18:56.980Z,18.13
2022-09-12T03:21:29.901Z,17.10
2022-09-12T03:24:09.457Z,20.23
2022-09-12T03:26:43.765Z,18.17
2022-09-12T03:29:13.783Z,16.80
2022-09-12T03:31:50.546Z,16.53
2022-09-12T03:34:20.918Z,15.77
2022-09-12T03:36:50.038Z,17.23
2022-09-12T03:39:18.459Z,18.53
2022-09-12T03:41:46.720Z,17.87
2022-09-12T03:44:14.976Z,18.70
2022-09-12T03:46:43.257Z,19.50
2022-09-12T03:49:12.050Z,18.93
2022-09-12T03:51:43.109Z,21.23
2022-09-12T03:54:12.654Z,22.03
2022-09-12T03:56:41.667Z,18.87
2022-09-12T03:59:10.154Z,19.43
2022-09-12T04:01:38.884Z,17.23
2022-09-12T04:04:07.222Z,18.30
2022-09-12T04:06:35.681Z,19.57
2022-09-12T04:09:05.529Z,17.07
2022-09-12T04:11:35.963Z,19.63
2022-09-12T04:14:04.339Z,18.57
2022-09-12T04:16:33.461Z,20.83
2022-09-12T04:19:01.878Z,19.87
2022-09-12T04:21:30.989Z,18.90
2022-09-12T04:23:59.308Z,18.20
2022-09-12T04:26:29.901Z,18.33
2022-09-12T04:28:58.377Z,19.20
2022-09-12T04:31:27.312Z,18.03
2022-09-12T04:33:56.453Z,19.47
2022-09-12T04:36:25.580Z,19.07
2022-09-12T04:38:53.899Z,17.57
2022-09-12T04:41:24.403Z,19.60
2022-09-12T04:43:58.314Z,18.07
2022-09-12T04:46:27.573Z,21.03
2022-09-12T04:48:57.000Z,19.30
2022-09-12T04:51:28.433Z,17.27
2022-09-12T04:53:59.074Z,17.63
2022-09-12T04:56:28.971Z,15.87
2022-09-12T04:59:01.469Z,18.47
2022-09-12T05:01:31.257Z,17.17
2022-09-12T05:04:02.199Z,18.27
2022-09-12T05:06:32.642Z,20.47
2022-09-12T05:09:02.201Z,17.83
2022-09-12T05:11:53.081Z,20.47
2022-09-12T05:14:22.673Z,18.63
2022-09-12T05:16:51.128Z,22.73
2022-09-12T05:19:19.448Z,21.80
2022-09-12T05:21:47.747Z,19.70
2022-09-12T05:24:16.010Z,22.97
2022-09-12T05:26:44.356Z,19.63
2022-09-12T05:29:13.273Z,18.90
2022-09-12T05:31:43.082Z,19.43
2022-09-12T05:34:11.618Z,23.47
2022-09-12T05:36:39.905Z,24.63
2022-09-12T05:39:08.491Z,23.03
2022-09-12T05:41:37.145Z,23.30
2022-09-12T05:44:07.772Z,19.87
2022-09-12T05:46:39.189Z,24.67
2022-09-12T05:49:11.429Z,20.50
2022-09-12T05:51:42.448Z,21.30
2022-09-12T05:54:12.121Z,20.00
2022-09-12T05:56:42.126Z,23.67
2022-09-12T05:59:13.585Z,23.63
2022-09-12T06:01:42.109Z,25.20
2022-09-12T06:04:12.263Z,22.63
2022-09-12T06:06:43.536Z,22.10
2022-09-12T06:09:12.980Z,24.33
2022-09-12T06:11:42.072Z,21.83
2022-09-12T06:14:11.641Z,23.43
2022-09-12T06:16:40.726Z,21.03
2022-09-12T06:19:19.368Z,23.70
2022-09-12T06:21:48.420Z,23.67
2022-09-12T06:24:17.666Z,20.47
2022-09-12T06:26:46.994Z,19.43
2022-09-12T06:29:15.573Z,19.77
2022-09-12T06:31:44.861Z,19.92
2022-09-12T06:34:16.894Z,21.02
2022-09-12T06:36:47.383Z,18.98
2022-09-12T06:39:18.575Z,18.35
2022-09-12T06:41:47.405Z,19.77
2022-09-12T06:44:18.005Z,18.80
2022-09-12T06:46:46.325Z,19.23
2022-09-12T06:49:17.543Z,17.90
2022-09-12T06:51:45.879Z,18.83
2022-09-12T06:54:15.517Z,15.60
2022-09-12T06:56:44.720Z,15.77
2022-09-12T06:59:13.227Z,15.45
2022-09-12T07:01:42.363Z,13.82
2022-09-12T07:04:11.004Z,14.00
2022-09-12T07:06:42.183Z,15.23
2022-09-12T07:09:13.599Z,14.70
2022-09-12T07:11:43.521Z,15.77
2022-09-12T07:14:14.592Z,14.82
2022-09-12T07:16:43.286Z,13.65
2022-09-12T07:19:12.253Z,12.80
2022-09-12T07:21:42.557Z,10.65
2022-09-12T07:24:11.799Z,9.90
2022-09-12T07:26:42.203Z,15.00
2022-09-12T07:29:35.949Z,11.65
2022-09-12T07:32:05.648Z,11.65
2022-09-12T07:34:34.271Z,13.25
2022-09-12T07:37:04.204Z,12.88
2022-09-12T07:39:32.500Z,9.45
2022-09-12T07:42:01.542Z,10.65
2022-09-12T07:44:30.283Z,8.48
2022-09-12T07:46:59.209Z,12.07
2022-09-12T07:49:27.496Z,11.80
2022-09-12T07:51:55.879Z,9.30
2022-09-12T07:54:25.730Z,10.02
2022-09-12T07:56:54.005Z,8.63
2022-09-12T07:59:48.450Z,8.23
2022-09-12T08:02:17.136Z,10.65
2022-09-12T08:10:00.481Z,11.30
2022-09-12T08:12:29.381Z,12.82
2022-09-12T08:14:57.772Z,11.60
2022-09-12T08:17:26.132Z,12.52
2022-09-12T08:19:54.433Z,13.50
2022-09-12T08:22:22.911Z,13.13
2022-09-12T08:24:51.367Z,13.20
2022-09-12T08:27:21.160Z,15.50
2022-09-12T08:29:49.708Z,11.52
2022-09-12T08:32:18.032Z,13.43
2022-09-12T08:34:48.534Z,16.00
2022-09-12T08:37:16.852Z,12.13
2022-09-12T08:39:45.405Z,9.98
2022-09-12T08:42:24.474Z,9.23
2022-09-12T08:45:06.515Z,8.77
2022-09-12T08:47:37.713Z,9.45
2022-09-12T08:50:15.508Z,7.70
2022-09-12T08:52:51.991Z,9.68
2022-09-12T08:55:32.329Z,8.65
2022-09-12T08:58:03.295Z,8.27
2022-09-12T09:00:50.337Z,8.32
2022-09-12T09:03:33.788Z,8.68
2022-09-12T09:06:09.171Z,10.05
2022-09-12T09:08:48.122Z,6.68
2022-09-12T09:11:33.680Z,9.02
2022-09-12T09:14:36.748Z,6.10
2022-09-12T09:17:10.241Z,5.47
2022-09-12T09:19:48.803Z,7.53
2022-09-12T09:22:28.980Z,7.47
2022-09-12T09:25:02.699Z,8.00
2022-09-12T09:27:40.891Z,5.88
2022-09-12T09:30:16.496Z,5.78
2022-09-12T09:32:48.113Z,5.05
2022-09-12T09:35:20.027Z,5.93
2022-09-12T09:38:00.255Z,5.03
2022-09-12T09:40:37.301Z,4.85
2022-09-12T09:43:14.116Z,4.47
2022-09-12T09:45:47.310Z,7.20
2022-09-12T09:48:19.725Z,4.15
2022-09-12T09:50:50.681Z,4.63
2022-09-12T09:53:38.424Z,6.55
2022-09-12T09:56:12.819Z,3.70
2022-09-12T09:58:42.269Z,3.55
2022-09-12T10:01:18.145Z,3.97
2022-09-12T10:03:51.616Z,4.20
2022-09-12T10:06:27.023Z,2.75
2022-09-12T10:09:08.626Z,3.75
2022-09-12T10:11:42.563Z,3.17
2022-09-12T10:14:35.230Z,2.78
2022-09-12T10:17:23.711Z,4.10
2022-09-12T10:20:17.387Z,2.53
2022-09-12T10:22:42.098Z,3.88
2022-09-12T10:25:16.679Z,2.30
2022-09-12T10:27:44.991Z,3.92
2022-09-12T10:30:19.565Z,4.38
2022-09-12T10:32:51.853Z,3.38
2022-09-12T10:35:22.359Z,1.88
2022-09-12T10:37:56.718Z,3.05
2022-09-12T10:40:27.736Z,2.65
2022-09-12T10:42:57.791Z,4.88
2022-09-12T10:45:30.209Z,2.72
2022-09-12T10:48:06.784Z,3.25
2022-09-12T10:50:40.601Z,3.00
2022-09-12T10:53:20.337Z,2.72
2022-09-12T10:56:09.095Z,2.53
2022-09-12T10:58:49.626Z,3.20
2022-09-12T11:01:31.785Z,3.92
2022-09-12T11:04:18.956Z,2.80
2022-09-12T11:06:58.642Z,2.88
2022-09-12T11:09:36.127Z,3.33
2022-09-12T11:12:13.081Z,8.82
2022-09-12T11:14:58.250Z,2.55
2022-09-12T11:17:37.268Z,4.07
2022-09-12T11:20:24.179Z,2.55
2022-09-12T11:23:15.356Z,2.60
2022-09-12T11:25:50.448Z,4.40
2022-09-12T11:28:30.067Z,3.25
2022-09-12T11:31:24.748Z,2.75
2022-09-12T11:33:56.813Z,3.13
2022-09-12T11:36:35.284Z,4.22
2022-09-12T11:39:13.332Z,3.08
2022-09-12T11:41:44.661Z,4.88
2022-09-12T11:44:18.538Z,3.63
2022-09-12T11:46:51.723Z,3.83
2022-09-12T11:49:30.495Z,2.92
2022-09-12T11:52:07.012Z,3.58
2022-09-12T11:54:40.543Z,4.18
2022-09-12T11:57:14.726Z,2.38
2022-09-12T11:59:50.106Z,2.63
2022-09-12T12:02:28.272Z,2.65
2022-09-12T12:05:20.710Z,5.47
2022-09-12T12:07:54.563Z,3.55
2022-09-12T12:10:32.412Z,3.15
2022-09-12T12:13:03.402Z,4.10
2022-09-12T12:15:33.099Z,2.78
2022-09-12T12:18:03.590Z,2.42
2022-09-12T12:20:32.497Z,2.30
2022-09-12T12:23:02.255Z,3.33
2022-09-12T12:25:43.115Z,5.22
2022-09-12T12:28:11.593Z,4.28
2022-09-12T12:31:02.562Z,2.60
2022-09-12T12:34:27.585Z,3.25
2022-09-12T12:36:56.032Z,2.78
2022-09-12T12:40:04.147Z,2.30
2022-09-12T12:43:21.167Z,3.28
2022-09-12T12:46:10.807Z,4.60
2022-09-12T12:48:58.956Z,2.63
2022-09-12T12:51:44.498Z,3.30
2022-09-12T12:54:47.811Z,3.83
2022-09-12T12:57:20.873Z,3.75
2022-09-12T12:59:53.013Z,2.63
2022-09-12T13:02:31.866Z,3.42
2022-09-12T13:05:01.684Z,2.95
2022-09-12T13:07:34.782Z,2.83
2022-09-12T13:10:04.707Z,2.30
2022-09-12T13:12:36.695Z,2.40
2022-09-12T13:15:28.189Z,3.47
2022-09-12T13:18:02.488Z,4.20
2022-09-12T13:20:34.872Z,2.03
2022-09-12T13:23:03.319Z,2.83
2022-09-12T13:25:33.192Z,5.78
2022-09-12T13:28:08.056Z,2.67
2022-09-12T13:30:37.862Z,3.42
2022-09-12T13:33:20.692Z,3.88
2022-09-12T13:36:14.716Z,4.72
2022-09-12T13:38:54.441Z,1.90
2022-09-12T13:41:40.402Z,2.55
2022-09-12T13:44:13.566Z,4.03
2022-09-12T13:46:42.579Z,4.10
2022-09-12T13:49:22.103Z,2.28
2022-09-12T13:52:01.931Z,5.00
2022-09-12T13:54:31.965Z,2.38
2022-09-12T13:57:00.619Z,3.38
2022-09-12T13:59:28.865Z,2.13
2022-09-12T14:01:57.256Z,4.15
2022-09-12T14:04:45.361Z,2.58
2022-09-12T14:07:17.364Z,6.00
2022-09-12T14:09:47.557Z,4.50
2022-09-12T14:12:26.601Z,5.00
2022-09-12T14:14:55.141Z,7.07
2022-09-12T14:17:29.857Z,2.65
2022-09-12T14:20:02.099Z,4.65
2022-09-12T14:22:31.270Z,4.95
2022-09-12T14:25:00.973Z,2.97
2022-09-12T14:27:34.196Z,4.32
2022-09-12T14:30:07.674Z,3.65
2022-09-12T14:32:36.839Z,3.63
2022-09-12T14:35:18.247Z,2.85
2022-09-12T14:37:49.518Z,4.80
2022-09-12T14:40:20.449Z,3.58
2022-09-12T14:42:50.670Z,2.70
2022-09-12T14:45:25.357Z,2.75
2022-09-12T14:47:54.900Z,2.45
2022-09-12T14:50:27.816Z,3.00
2022-09-12T14:53:07.953Z,2.90
2022-09-12T14:55:44.013Z,5.65
2022-09-12T14:58:17.959Z,2.80
2022-09-12T15:00:57.916Z,3.90
2022-09-12T15:03:29.381Z,2.28
2022-09-12T15:06:00.262Z,2.75
2022-09-12T15:08:28.743Z,1.95
2022-09-12T15:10:57.254Z,1.38
2022-09-12T15:13:28.018Z,2.70
2022-09-12T15:15:58.262Z,2.75
2022-09-12T15:18:28.423Z,2.33
2022-09-12T15:21:02.525Z,1.83
2022-09-12T15:23:34.208Z,1.98
2022-09-12T15:26:03.035Z,1.45
2022-09-12T15:28:32.596Z,3.70
2022-09-12T15:31:07.147Z,1.95
2022-09-12T15:33:35.662Z,3.95
2022-09-12T15:36:13.004Z,1.77
2022-09-12T15:38:41.359Z,2.65
2022-09-12T15:41:14.080Z,1.55
2022-09-12T15:43:42.354Z,3.17
2022-09-12T15:46:12.608Z,1.80
2022-09-12T15:48:41.331Z,2.13
2022-09-12T15:51:15.579Z,2.03
2022-09-12T15:53:45.350Z,1.90
2022-09-12T15:56:14.044Z,2.83
2022-09-12T15:58:57.136Z,2.25
2022-09-12T16:01:27.149Z,2.88
2022-09-12T16:03:55.656Z,2.30
2022-09-12T16:06:25.509Z,2.65
2022-09-12T16:08:53.892Z,3.30
2022-09-12T16:11:25.050Z,3.97
2022-09-12T16:13:54.067Z,2.47
2022-09-12T16:16:22.407Z,2.80
2022-09-12T16:18:50.771Z,2.20
2022-09-12T16:21:19.532Z,2.38
2022-09-12T16:23:49.975Z,2.75
2022-09-12T16:26:18.735Z,2.72
2022-09-12T16:28:47.263Z,1.60
2022-09-12T16:31:17.166Z,2.72
2022-09-12T16:33:45.526Z,1.92
2022-09-12T16:36:15.634Z,2.78
2022-09-12T16:38:45.019Z,2.65
2022-09-12T16:41:15.902Z,1.73
2022-09-12T16:43:45.695Z,2.17
2022-09-12T16:46:16.012Z,2.30
2022-09-12T16:48:51.584Z,2.20
2022-09-12T16:51:22.451Z,3.70
2022-09-12T16:53:51.329Z,2.45
2022-09-12T16:56:21.095Z,2.00
2022-09-12T16:58:49.889Z,1.63
2022-09-12T17:01:20.334Z,4.47
2022-09-12T17:03:49.137Z,3.20
2022-09-12T17:06:19.922Z,2.97
2022-09-12T17:08:51.099Z,2.35
2022-09-12T17:11:22.646Z,2.47
2022-09-12T17:14:04.542Z,2.75
2022-09-12T17:16:34.236Z,1.33
2022-09-12T17:19:02.608Z,3.33
2022-09-12T17:21:30.912Z,1.63
2022-09-12T17:23:59.598Z,4.97
2022-09-12T17:26:29.402Z,3.53
2022-09-12T17:28:57.851Z,2.65
2022-09-12T17:31:26.712Z,2.63
2022-09-12T17:33:58.588Z,2.55
2022-09-12T17:36:27.908Z,2.58
2022-09-12T17:38:56.482Z,2.67
2022-09-12T17:41:27.417Z,2.05
2022-09-12T17:43:58.361Z,3.25
2022-09-12T17:46:28.548Z,3.13
2022-09-12T17:48:58.782Z,4.38
2022-09-12T17:51:29.109Z,4.10
2022-09-12T17:54:00.180Z,2.60
2022-09-12T17:56:30.946Z,4.40
2022-09-12T17:59:01.502Z,2.55
2022-09-12T18:01:48.682Z,2.63
2022-09-12T18:04:19.973Z,4.07
2022-09-12T18:06:49.281Z,3.60
2022-09-12T18:09:20.131Z,3.83
2022-09-12T18:11:49.293Z,3.75
2022-09-12T18:14:20.519Z,3.05
2022-09-12T18:16:49.484Z,2.70
2022-09-12T18:19:18.361Z,2.33
2022-09-12T18:21:47.062Z,2.65
2022-09-12T18:24:15.423Z,5.72
2022-09-12T18:26:44.999Z,3.38
2022-09-12T18:29:16.989Z,3.72
2022-09-12T18:31:47.812Z,3.90
2022-09-12T18:34:17.212Z,3.50
2022-09-12T18:36:47.377Z,3.38
2022-09-12T18:39:16.297Z,4.07
2022-09-12T18:41:44.955Z,3.35
2022-09-12T18:44:16.061Z,4.28
2022-09-12T18:46:44.427Z,5.25
2022-09-12T18:49:14.261Z,3.42
2022-09-12T18:51:42.707Z,3.13
2022-09-12T18:54:14.200Z,4.28
2022-09-12T18:56:44.077Z,4.95
2022-09-12T18:59:15.032Z,4.53
2022-09-12T19:01:44.472Z,3.72
2022-09-12T19:04:16.531Z,4.53
2022-09-12T19:06:46.798Z,4.63
2022-09-12T19:09:16.944Z,5.00
2022-09-12T19:11:50.046Z,3.47
2022-09-12T19:14:20.072Z,4.93
2022-09-12T19:16:48.498Z,4.63
2022-09-12T19:19:18.439Z,4.03
2022-09-12T19:21:47.399Z,5.43
2022-09-12T19:24:16.693Z,4.22
2022-09-12T19:26:45.186Z,5.30
2022-09-12T19:29:14.719Z,3.67
2022-09-12T19:31:43.348Z,3.47
2022-09-12T19:34:13.316Z,3.85
2022-09-12T19:36:45.923Z,5.38
2022-09-12T19:39:16.520Z,3.97
2022-09-12T19:41:45.500Z,5.13
2022-09-12T19:44:14.151Z,5.90
2022-09-12T19:46:42.711Z,3.47
2022-09-12T19:49:13.015Z,4.97
2022-09-12T19:51:43.987Z,5.25
2022-09-12T19:54:14.868Z,3.97
2022-09-12T19:56:43.534Z,5.63
2022-09-12T19:59:12.344Z,6.95
2022-09-12T20:01:40.836Z,3.40
2022-09-12T20:04:09.269Z,5.93
2022-09-12T20:06:37.583Z,5.07
2022-09-12T20:09:07.363Z,5.95
2022-09-12T20:11:35.748Z,5.22
2022-09-12T20:14:04.177Z,4.22
2022-09-12T20:16:33.638Z,6.38
2022-09-12T20:19:06.049Z,6.32
2022-09-12T20:21:36.112Z,5.93
2022-09-12T20:24:08.739Z,4.95
2022-09-12T20:26:37.508Z,6.03
2022-09-12T20:29:07.057Z,5.03
2022-09-12T20:31:36.144Z,6.57
2022-09-12T20:34:04.900Z,5.22
2022-09-12T20:36:33.893Z,6.38
2022-09-12T20:39:03.193Z,5.28
2022-09-12T20:41:35.545Z,5.63
2022-09-12T20:44:04.299Z,6.38
2022-09-12T20:46:33.162Z,5.88
2022-09-12T20:49:01.569Z,6.00
2022-09-12T20:51:30.582Z,6.10
2022-09-12T20:54:00.333Z,5.53
2022-09-12T20:56:29.637Z,4.35
2022-09-12T20:59:00.677Z,4.50
2022-09-12T21:01:31.411Z,7.32
2022-09-12T21:04:00.793Z,5.07
2022-09-12T21:06:29.492Z,5.60
2022-09-12T21:09:00.777Z,4.90
2022-09-12T21:11:29.963Z,5.78
2022-09-12T21:13:59.808Z,6.75
2022-09-12T21:16:28.576Z,6.13
2022-09-12T21:18:58.871Z,6.30
2022-09-12T21:21:28.067Z,5.15
2022-09-12T21:23:59.206Z,5.00
2022-09-12T21:26:28.006Z,4.80
2022-09-12T21:28:56.471Z,4.53
2022-09-12T21:31:27.016Z,4.72
2022-09-12T21:33:56.090Z,3.75
2022-09-12T21:36:25.379Z,4.93
2022-09-12T21:38:53.975Z,5.05
2022-09-12T21:41:22.330Z,5.55
2022-09-12T21:43:50.783Z,4.38
2022-09-12T21:46:19.594Z,4.95
2022-09-12T21:48:49.293Z,8.30
2022-09-12T21:51:18.205Z,5.63
2022-09-12T21:53:46.572Z,5.13
2022-09-12T21:56:14.971Z,3.63
2022-09-12T21:58:43.332Z,4.95
2022-09-12T22:01:13.133Z,4.32
2022-09-12T22:03:44.753Z,3.90
2022-09-12T22:06:16.391Z,3.72
2022-09-12T22:08:46.114Z,4.25
2022-09-12T22:11:15.060Z,4.10
2022-09-12T22:13:44.005Z,3.78
2022-09-12T22:16:12.861Z,5.68
2022-09-12T22:18:41.415Z,5.10
2022-09-12T22:21:13.036Z,6.32
2022-09-12T22:24:01.111Z,4.00
2022-09-12T22:26:30.117Z,4.75
2022-09-12T22:28:58.712Z,3.47
2022-09-12T22:31:28.189Z,3.75
2022-09-12T22:33:57.420Z,3.83
2022-09-12T22:36:30.516Z,5.63
2022-09-12T22:39:01.749Z,4.82
2022-09-12T22:41:30.204Z,5.43
2022-09-12T22:43:58.508Z,3.75
2022-09-12T22:46:27.596Z,5.05
2022-09-12T22:48:56.732Z,5.63
2022-09-12T22:51:25.101Z,4.30
2022-09-12T22:53:53.832Z,3.95
2022-09-12T22:56:23.856Z,6.47
2022-09-12T22:58:52.834Z,4.53
2022-09-12T23:01:21.417Z,4.72
2022-09-12T23:03:49.848Z,5.28
2022-09-12T23:06:19.027Z,3.55
2022-09-12T23:08:47.326Z,4.65
2022-09-12T23:11:17.503Z,5.28
2022-09-12T23:13:48.684Z,4.40
2022-09-12T23:16:20.038Z,5.47
2022-09-12T23:18:49.148Z,3.80
2022-09-12T23:21:21.253Z,4.88
2022-09-12T23:23:49.841Z,4.65
2022-09-12T23:26:20.477Z,4.93
2022-09-12T23:28:52.852Z,3.60
2022-09-12T23:31:22.022Z,4.60
2022-09-12T23:33:51.124Z,5.10
2022-09-12T23:36:19.569Z,4.10
2022-09-12T23:38:48.120Z,5.25
2022-09-12T23:41:18.236Z,4.97
2022-09-12T23:43:47.254Z,3.50
2022-09-12T23:46:18.688Z,4.65
2022-09-12T23:48:46.978Z,4.57
2022-09-12T23:51:15.964Z,10.13
2022-09-12T23:53:44.416Z,3.25
2022-09-12T23:56:14.966Z,3.60
2022-09-12T23:58:43.343Z,4.82
